• Join FlightAware (Why Join?)
  • Login
  • US Flag 
09:09PM EDT


 

Airport Tracker/Info


-or-


 

Live Flight TrackerFlight Track Log ✈ AWE2180 ✈ 08-Apr-2013 ✈ KDCA - KLGA

Flight Track Log - Related Links

Times and Time Zones

All times are in EDT time to prevent confusion due to time zone crossing. See the AWE2180 flight status page for this flight to view local times or setup timezone preferences in your user account.

Time Position Orientation Groundspeed Altitude Reporting Facility
EDT Latitude Longitude Course Direction KTS MPH feet Rate Location/Type
05:46PM 38.7672 -77.0214 90° East 177 204 4,900  Level Washington Center
05:47PM 38.9366 -76.6736 67° East  Level FlightAware Approximate
05:47PM 38.7786 -76.9444 79° East 146 168 7,300  Level Washington Center
05:48PM 38.9751 -76.5496 72° East  Level FlightAware Approximate
05:48PM 38.8419 -76.8764 40° Northeast 184 212 10,700  Level Washington Center
05:49PM 39.0045 -76.4214 74° East  Level FlightAware Approximate
05:49PM 38.9053 -76.7814 49° Northeast 260 299 12,600  Level Washington Center
05:50PM 39.0167 -76.2899 90° East  Level FlightAware Approximate
05:50PM 38.9483 -76.6458 68° East 352 405 15,600  Level Washington Center
05:51PM 39.0333 -76.1588 90° East  Level FlightAware Approximate
05:51PM 38.9911 -76.5075 68° East 379 436 19,000  Level Washington Center
05:52PM 39.0297 -76.3639 71° East 398 458 21,000 960 Climbing Washington Center
05:53PM 39.0389 -76.2169 85° East 408 470 21,000  Level Washington Center
05:54PM 39.0458 -76.0619 87° East 419 482 21,000  Level Washington Center
05:55PM 39.0506 -75.9069 88° East 425 489 21,000  Level Washington Center
05:56PM 39.0653 -75.7519 83° East 430 495 21,000  Level Washington Center
05:57PM 39.1447 -75.6344 49° Northeast 403 464 21,000  Level Washington Center
05:58PM 39.2197 -75.5353 46° Northeast 395 455 21,000  Level Washington Center
05:59PM 39.2967 -75.4575 38° Northeast 367 422 21,000  Level Washington Center
06:00PM 39.3800 -75.3875 33° Northeast 357 411 21,000  Level Washington Center
06:01PM 39.4589 -75.3147 35° Northeast 352 405 21,000  Level Washington Center
06:02PM 39.5400 -75.2417 35° Northeast 352 405 21,000 -180 Level Washington Center
06:03PM 39.6253 -75.1767 30° Northeast 352 405 20,700 -1,080 Descending Washington Center
06:04PM 39.7189 -75.1492 13° North 338 389 18,900 -1,860 Descending Washington Center
06:05PM 39.8061 -75.0836 30° Northeast 322 371 17,000 -1,980 Descending Washington Center
06:06PM 39.8578 -74.9994 51° Northeast 320 368 15,000 -2,040 Descending Washington Center
06:08PM 39.9500 -74.8667 48° Northeast 327 376 12,300 -1,740 Descending New York TRACON
06:09PM 40.0167 -74.7667 49° Northeast 348 400 10,900 -960 Descending New York TRACON
06:10PM 40.0833 -74.6833 44° Northeast 348 400 10,400 -480 Descending New York TRACON
06:11PM 40.1500 -74.5833 49° Northeast 346 398 10,000 -240 Descending New York TRACON
06:12PM 40.2000 -74.4833 57° Northeast 344 396 10,000  Level New York TRACON
06:13PM 40.2667 -74.4000 44° Northeast 327 376 10,000 -840 Level New York TRACON
06:14PM 40.3333 -74.3333 37° Northeast 302 348 8,400 -1,500 Descending New York TRACON
06:15PM 40.4000 -74.2500 44° Northeast 304 350 7,100 -900 Descending New York TRACON
06:15PM 40.4500 -74.1833 45° Northeast 299 344 6,800 -960 Descending New York TRACON
06:16PM 40.5167 -74.1167 37° Northeast 286 329 5,300 -1,380 Descending New York TRACON
06:18PM 40.5833 -74.0667 30° Northeast 280 322 4,000 -660 Descending New York TRACON
06:19PM 40.6667 -74.0333 17° North 282 325 4,000  Level New York TRACON
06:20PM 40.7333 -74.0167 11° North 276 318 4,000 -300 Level New York TRACON
06:21PM 40.8000 -73.9833 21° North 267 307 3,400 -540 Descending New York TRACON
06:22PM 40.8500 -73.9167 45° Northeast 229 264 3,000 -720 Descending New York TRACON
06:23PM 40.9000 -73.8667 37° Northeast 212 244 2,000 -480 Descending New York TRACON
06:24PM 40.8833 -73.8167 114° Southeast 181 208 2,000  Level New York TRACON